Time;durP1;ratioP1;P1;durP2;ratioP2;P2;SDS_P1;SDS_P2;PMS_P1;PMS_P2;Temp;Humidity;BMP_temperature;BMP_pressure;BME280_temperature;BME280_humidity;BME280_pressure;Samples;Min_cycle;Max_cycle;Signal;HPM_P1;HPM_P2
2023/08/10 00:01:49;;;;;;;3.67;1.40;;;17.00;99.90;;;;;;4969990;28;20180;-75
2023/08/10 00:04:14;;;;;;;3.70;2.20;;;17.00;99.90;;;;;;4970456;28;20591;-75
2023/08/10 00:06:40;;;;;;;4.80;2.30;;;17.00;99.90;;;;;;4970569;28;20304;-75
2023/08/10 00:09:07;;;;;;;9.63;3.63;;;17.00;99.90;;;;;;4975497;28;20236;-75
2023/08/10 00:11:36;;;;;;;7.60;3.53;;;17.00;99.90;;;;;;4952316;28;20184;-75
2023/08/10 00:14:03;;;;;;;5.70;3.43;;;17.00;99.90;;;;;;4952247;28;20683;-75
2023/08/10 00:16:29;;;;;;;5.30;2.70;;;17.00;99.90;;;;;;4951191;28;20691;-75
2023/08/10 00:18:55;;;;;;;6.50;2.70;;;17.00;99.90;;;;;;4942930;29;20627;-75
2023/08/10 00:21:21;;;;;;;5.93;2.03;;;17.00;99.90;;;;;;4952412;28;20626;-75
2023/08/10 00:23:47;;;;;;;4.90;2.17;;;16.90;99.90;;;;;;4986550;28;20627;-75
2023/08/10 00:26:12;;;;;;;4.93;1.50;;;16.90;99.90;;;;;;4970417;28;20628;-75
2023/08/10 00:28:38;;;;;;;2.57;1.40;;;16.90;99.90;;;;;;4966005;28;20623;-75
2023/08/10 00:31:04;;;;;;;2.47;0.90;;;16.80;99.90;;;;;;4961313;28;20639;-75
2023/08/10 00:33:31;;;;;;;4.30;1.30;;;16.80;99.90;;;;;;4923206;28;20584;-75
2023/08/10 00:35:59;;;;;;;5.20;1.23;;;16.70;99.90;;;;;;4969011;28;20669;-75
2023/08/10 00:38:25;;;;;;;2.83;1.17;;;16.70;99.90;;;;;;4973582;28;20179;-75
2023/08/10 00:40:51;;;;;;;3.03;1.20;;;16.60;99.90;;;;;;4973760;28;20599;-75
2023/08/10 00:43:16;;;;;;;2.77;1.23;;;16.60;99.90;;;;;;4989670;28;20698;-75
2023/08/10 00:45:42;;;;;;;1.83;1.10;;;16.60;99.90;;;;;;4973653;28;20599;-75
2023/08/10 00:48:08;;;;;;;3.20;1.20;;;16.60;99.90;;;;;;4973560;28;20541;-75
2023/08/10 00:50:34;;;;;;;3.30;1.10;;;16.50;99.90;;;;;;4974556;28;20199;-75
2023/08/10 00:53:00;;;;;;;4.17;1.13;;;16.50;99.90;;;;;;4953950;28;20602;-74
2023/08/10 00:55:27;;;;;;;3.40;1.33;;;16.60;99.90;;;;;;4972484;28;20211;-75
2023/08/10 00:57:53;;;;;;;2.90;1.43;;;16.60;99.90;;;;;;4973602;28;20701;-75
2023/08/10 01:00:18;;;;;;;3.70;1.27;;;16.60;99.90;;;;;;4965540;28;21252;-74
2023/08/10 01:02:44;;;;;;;2.33;1.27;;;16.70;99.90;;;;;;4974507;28;20254;-75
2023/08/10 01:05:12;;;;;;;4.17;1.53;;;16.70;99.90;;;;;;4971960;28;20187;-75
2023/08/10 01:07:54;;;;;;;4.20;1.60;;;16.80;99.90;;;;;;4959737;28;20623;-75
2023/08/10 01:10:29;;;;;;;1.83;1.00;;;16.80;99.90;;;;;;4985614;28;20694;-74
2023/08/10 01:13:09;;;;;;;4.60;1.23;;;16.90;99.90;;;;;;4962769;28;20962;-75
2023/08/10 01:15:37;;;;;;;3.17;1.20;;;17.00;99.90;;;;;;4972885;28;20650;-74
2023/08/10 01:18:09;;;;;;;4.20;1.27;;;17.00;99.90;;;;;;4965099;28;20602;-75
2023/08/10 01:20:35;;;;;;;5.30;1.50;;;17.10;99.90;;;;;;4945125;28;20634;-76
2023/08/10 01:23:18;;;;;;;2.40;1.37;;;17.20;99.90;;;;;;4963645;28;20706;-75
2023/08/10 01:25:45;;;;;;;2.50;1.20;;;17.20;99.90;;;;;;4937831;29;21166;-74
2023/08/10 01:28:15;;;;;;;2.67;1.40;;;17.20;99.90;;;;;;4979028;28;20711;-74
2023/08/10 01:30:42;;;;;;;5.10;1.47;;;17.20;99.90;;;;;;4953491;28;21033;-75
2023/08/10 01:33:08;;;;;;;3.30;1.00;;;17.30;99.90;;;;;;4960364;28;20595;-74
2023/08/10 01:35:37;;;;;;;5.20;1.60;;;17.30;99.90;;;;;;4985149;28;20658;-75
2023/08/10 01:38:04;;;;;;;6.83;1.50;;;17.30;99.90;;;;;;4986553;28;20595;-74
2023/08/10 01:40:33;;;;;;;3.20;1.10;;;17.30;99.90;;;;;;4988895;28;20641;-75
2023/08/10 01:43:00;;;;;;;3.60;1.10;;;17.30;99.90;;;;;;4972333;28;20595;-75
2023/08/10 01:45:25;;;;;;;2.10;1.03;;;17.30;99.90;;;;;;4956614;28;20606;-74
2023/08/10 01:48:25;;;;;;;3.40;1.00;;;17.30;99.90;;;;;;4974865;28;20179;-77
2023/08/10 01:50:53;;;;;;;2.70;1.30;;;17.30;99.90;;;;;;4980307;28;20280;-75
2023/08/10 01:53:27;;;;;;;1.87;1.20;;;17.30;99.90;;;;;;4969183;28;20613;-75
2023/08/10 01:55:53;;;;;;;2.97;1.10;;;17.30;99.90;;;;;;4965511;28;21347;-75
2023/08/10 01:58:19;;;;;;;2.20;1.20;;;17.30;99.90;;;;;;4972162;28;20584;-75
2023/08/10 02:00:45;;;;;;;3.17;1.17;;;17.30;99.90;;;;;;4972092;28;20258;-75
2023/08/10 02:03:11;;;;;;;2.07;1.10;;;17.30;99.90;;;;;;4955651;28;20641;-75
2023/08/10 02:05:37;;;;;;;2.40;1.20;;;17.30;99.90;;;;;;4988279;28;20587;-75
2023/08/10 02:08:03;;;;;;;2.50;1.07;;;17.30;99.90;;;;;;4972125;28;21027;-75
2023/08/10 02:10:29;;;;;;;2.07;0.93;;;17.40;99.90;;;;;;4972004;28;21234;-75
2023/08/10 02:12:55;;;;;;;4.30;1.10;;;17.40;99.90;;;;;;4971924;28;20595;-75
2023/08/10 02:15:21;;;;;;;2.10;1.10;;;17.40;99.90;;;;;;4972823;28;20646;-75
2023/08/10 02:17:47;;;;;;;3.00;1.00;;;17.40;99.90;;;;;;4972539;28;20184;-75
2023/08/10 02:20:12;;;;;;;3.70;1.20;;;17.40;99.90;;;;;;4974126;28;20686;-75
2023/08/10 02:22:45;;;;;;;2.50;1.10;;;17.40;99.90;;;;;;4973013;28;20180;-75
2023/08/10 02:25:11;;;;;;;3.20;1.20;;;17.40;99.90;;;;;;4975220;28;20723;-75
2023/08/10 02:27:40;;;;;;;2.37;1.03;;;17.40;99.90;;;;;;4962906;28;21283;-75
2023/08/10 02:30:07;;;;;;;2.47;1.20;;;17.40;99.90;;;;;;4967987;28;20203;-75
2023/08/10 02:32:34;;;;;;;3.67;1.20;;;17.40;99.90;;;;;;4970926;28;20634;-75
2023/08/10 02:35:00;;;;;;;4.00;1.10;;;17.40;99.90;;;;;;4972890;28;20642;-75
2023/08/10 02:37:27;;;;;;;2.50;0.93;;;17.30;99.90;;;;;;4971873;28;20669;-75
2023/08/10 02:39:53;;;;;;;2.80;1.00;;;17.20;99.90;;;;;;4971158;28;20682;-75
2023/08/10 02:42:19;;;;;;;2.77;1.30;;;17.20;99.90;;;;;;4971349;28;20619;-75
2023/08/10 02:44:45;;;;;;;4.70;1.40;;;17.10;99.90;;;;;;4971540;28;20259;-75
2023/08/10 02:47:12;;;;;;;2.47;1.10;;;17.00;99.90;;;;;;4971523;28;20626;-75
2023/08/10 02:49:38;;;;;;;2.63;1.10;;;16.90;99.90;;;;;;4971235;28;20611;-75
2023/08/10 02:52:05;;;;;;;3.13;1.00;;;16.80;99.90;;;;;;4970723;28;20615;-75
2023/08/10 02:54:30;;;;;;;3.63;1.10;;;16.80;99.90;;;;;;4970949;28;20623;-75
2023/08/10 02:56:56;;;;;;;4.20;0.90;;;16.70;99.90;;;;;;4971313;28;20637;-75
2023/08/10 02:59:22;;;;;;;7.60;1.67;;;16.60;99.90;;;;;;4971090;28;20669;-75
2023/08/10 03:01:47;;;;;;;4.80;1.23;;;16.60;99.90;;;;;;4972108;28;20542;-74
2023/08/10 03:04:13;;;;;;;4.17;1.30;;;16.50;99.90;;;;;;4987054;28;20238;-74
2023/08/10 03:06:39;;;;;;;3.40;1.53;;;16.50;99.90;;;;;;4971187;28;20647;-76
2023/08/10 03:09:06;;;;;;;5.30;1.47;;;16.40;99.90;;;;;;4951648;28;20573;-77
2023/08/10 03:11:33;;;;;;;3.97;1.10;;;16.40;99.90;;;;;;4951928;28;20587;-77
2023/08/10 03:13:59;;;;;;;3.30;1.00;;;16.30;99.90;;;;;;4981411;28;20653;-77
2023/08/10 03:16:25;;;;;;;3.13;0.90;;;16.20;99.90;;;;;;4971020;28;20658;-77
2023/08/10 03:18:51;;;;;;;5.37;1.10;;;16.20;99.90;;;;;;4971895;28;20606;-77
2023/08/10 03:21:17;;;;;;;3.37;1.30;;;16.10;99.90;;;;;;4987275;28;20176;-77
2023/08/10 03:23:43;;;;;;;3.13;1.20;;;16.10;99.90;;;;;;4964108;28;20694;-77
2023/08/10 03:26:10;;;;;;;5.73;1.70;;;16.10;99.90;;;;;;4970894;28;20630;-75
2023/08/10 03:28:35;;;;;;;5.13;1.10;;;16.00;99.90;;;;;;4934433;28;21165;-75
2023/08/10 03:31:03;;;;;;;3.80;1.27;;;16.00;99.90;;;;;;4964186;28;20191;-74
2023/08/10 03:33:29;;;;;;;3.23;1.10;;;15.90;99.90;;;;;;4938311;28;20961;-75
2023/08/10 03:35:55;;;;;;;3.37;1.00;;;15.90;99.90;;;;;;4969453;28;20207;-76
2023/08/10 03:38:22;;;;;;;3.23;1.50;;;15.80;99.90;;;;;;4955359;28;20611;-75
2023/08/10 03:40:48;;;;;;;4.67;1.37;;;15.80;99.90;;;;;;4947029;28;20977;-75
2023/08/10 03:43:14;;;;;;;6.50;1.23;;;15.80;99.90;;;;;;4971638;28;20184;-75
2023/08/10 03:45:39;;;;;;;5.20;1.20;;;15.70;99.90;;;;;;4967869;28;20987;-75
2023/08/10 03:48:06;;;;;;;5.00;1.37;;;15.70;99.90;;;;;;4964741;28;20203;-75
2023/08/10 03:50:32;;;;;;;4.23;1.57;;;15.60;99.90;;;;;;4970511;28;20716;-75
2023/08/10 03:52:58;;;;;;;3.50;1.77;;;15.60;99.90;;;;;;4951222;28;20188;-75
2023/08/10 03:55:25;;;;;;;2.10;1.00;;;15.60;99.90;;;;;;4951304;28;20208;-76
2023/08/10 03:57:50;;;;;;;4.53;1.40;;;15.50;99.90;;;;;;4983741;28;20210;-75
2023/08/10 04:00:16;;;;;;;3.83;1.07;;;15.50;99.90;;;;;;4938683;28;20611;-75
2023/08/10 04:02:43;;;;;;;4.43;1.33;;;15.50;99.90;;;;;;4986361;28;20266;-75
2023/08/10 04:05:10;;;;;;;2.83;1.73;;;15.40;99.90;;;;;;4974261;28;20591;-76
2023/08/10 04:07:37;;;;;;;2.97;1.10;;;15.40;99.90;;;;;;4974322;28;20960;-75
2023/08/10 04:10:08;;;;;;;3.10;1.50;;;15.40;99.90;;;;;;4968439;28;21391;-75
2023/08/10 04:12:34;;;;;;;2.53;1.00;;;15.40;99.90;;;;;;4954719;28;21000;-75
2023/08/10 04:15:02;;;;;;;2.30;1.10;;;15.40;99.90;;;;;;4955941;28;20738;-75
2023/08/10 04:17:28;;;;;;;2.37;1.13;;;15.40;99.90;;;;;;4952511;28;20643;-75
2023/08/10 04:19:53;;;;;;;3.07;1.30;;;15.50;99.90;;;;;;4978353;28;21025;-75
2023/08/10 04:22:20;;;;;;;4.53;1.50;;;15.50;99.90;;;;;;4967191;28;20586;-76
2023/08/10 04:24:45;;;;;;;5.13;1.60;;;15.50;99.90;;;;;;4974016;28;20183;-75
2023/08/10 04:27:11;;;;;;;5.83;1.20;;;15.60;99.90;;;;;;4969287;28;20600;-75
2023/08/10 04:29:37;;;;;;;4.50;1.50;;;15.60;99.90;;;;;;4972857;28;20564;-75
2023/08/10 04:32:04;;;;;;;3.60;1.47;;;15.60;99.90;;;;;;4961107;28;20534;-75
2023/08/10 04:34:32;;;;;;;2.60;1.13;;;15.70;99.90;;;;;;4973885;28;20644;-75
2023/08/10 04:36:57;;;;;;;2.63;0.90;;;15.80;99.90;;;;;;4975107;28;20650;-75
2023/08/10 04:39:23;;;;;;;3.33;1.80;;;15.80;99.90;;;;;;4974595;28;21219;-74
2023/08/10 04:41:49;;;;;;;3.83;1.20;;;15.80;99.90;;;;;;4974964;28;20187;-75
2023/08/10 04:44:14;;;;;;;4.47;2.10;;;15.90;99.90;;;;;;4972915;28;20179;-75
2023/08/10 04:46:40;;;;;;;3.67;1.30;;;16.00;99.90;;;;;;4988186;28;20188;-75
2023/08/10 04:49:06;;;;;;;2.30;1.30;;;16.10;99.90;;;;;;4959197;28;20203;-74
2023/08/10 04:51:31;;;;;;;3.40;1.20;;;16.10;99.90;;;;;;4974220;28;20180;-74
2023/08/10 04:53:57;;;;;;;2.13;1.23;;;16.20;99.90;;;;;;4969261;28;20191;-74
2023/08/10 04:56:23;;;;;;;3.90;1.70;;;16.30;99.90;;;;;;4955764;28;20212;-74
2023/08/10 04:58:49;;;;;;;5.37;1.67;;;16.30;99.90;;;;;;4982496;28;20544;-74
2023/08/10 05:01:14;;;;;;;3.03;1.30;;;16.40;99.90;;;;;;4975348;28;20629;-74
2023/08/10 05:03:40;;;;;;;5.60;2.07;;;16.50;99.90;;;;;;4989933;28;20230;-74
2023/08/10 05:06:06;;;;;;;2.50;1.40;;;16.50;99.90;;;;;;4974935;28;20176;-75
2023/08/10 05:08:32;;;;;;;3.97;1.50;;;16.60;99.90;;;;;;4974618;28;20184;-75
2023/08/10 05:10:58;;;;;;;4.77;1.60;;;16.70;99.90;;;;;;4979922;28;20193;-75
2023/08/10 05:13:24;;;;;;;3.20;1.30;;;16.80;99.90;;;;;;4957296;28;20227;-75
2023/08/10 05:15:50;;;;;;;4.20;1.57;;;16.90;99.90;;;;;;4962835;28;20666;-75
2023/08/10 05:18:20;;;;;;;3.43;1.40;;;17.00;99.90;;;;;;4961789;28;21164;-75
2023/08/10 05:20:46;;;;;;;3.77;1.77;;;17.10;99.90;;;;;;4966663;28;20665;-75
2023/08/10 05:23:11;;;;;;;6.00;2.17;;;17.20;99.90;;;;;;4969035;28;20622;-75
2023/08/10 05:25:37;;;;;;;2.37;1.20;;;17.30;99.90;;;;;;4977825;28;20207;-75
2023/08/10 05:28:03;;;;;;;3.63;1.33;;;17.30;99.90;;;;;;4980014;28;20274;-76
2023/08/10 05:30:29;;;;;;;4.00;1.60;;;17.50;99.90;;;;;;4987621;28;20669;-76
2023/08/10 05:32:55;;;;;;;3.23;1.43;;;17.60;99.90;;;;;;4982578;28;20937;-75
2023/08/10 05:35:21;;;;;;;4.77;1.53;;;17.70;99.90;;;;;;4969294;28;20204;-75
2023/08/10 05:37:46;;;;;;;3.10;1.43;;;17.80;99.90;;;;;;4958913;28;20188;-74
2023/08/10 05:40:12;;;;;;;4.67;1.40;;;17.90;99.90;;;;;;4953889;28;20639;-75
2023/08/10 05:42:40;;;;;;;6.40;1.63;;;18.00;99.90;;;;;;4970867;28;20258;-75
2023/08/10 05:45:06;;;;;;;3.53;1.63;;;18.10;99.90;;;;;;4967236;28;20716;-75
2023/08/10 05:47:33;;;;;;;3.27;1.37;;;18.20;99.90;;;;;;4957221;28;20998;-75
2023/08/10 05:49:59;;;;;;;7.13;1.67;;;18.40;99.90;;;;;;4965869;28;20621;-76
2023/08/10 05:52:25;;;;;;;4.70;2.37;;;18.50;99.90;;;;;;4973706;28;21164;-75
2023/08/10 05:54:50;;;;;;;5.10;1.60;;;18.60;99.90;;;;;;4964681;28;20765;-75
2023/08/10 05:57:16;;;;;;;3.97;2.37;;;18.60;99.90;;;;;;4962571;28;20689;-75
2023/08/10 05:59:42;;;;;;;5.30;1.40;;;18.70;99.90;;;;;;4967158;28;20282;-75
2023/08/10 06:02:08;;;;;;;3.10;1.90;;;19.00;99.90;;;;;;4973685;28;20204;-75
2023/08/10 06:04:34;;;;;;;4.30;1.53;;;19.50;99.90;;;;;;4973265;28;20235;-75
2023/08/10 06:07:00;;;;;;;2.90;1.50;;;20.00;99.90;;;;;;4965494;28;20587;-75
2023/08/10 06:09:26;;;;;;;4.63;1.30;;;20.30;99.90;;;;;;4973528;28;20631;-75
2023/08/10 06:11:52;;;;;;;4.53;1.97;;;20.40;99.90;;;;;;4970262;28;21061;-76
2023/08/10 06:14:18;;;;;;;4.13;1.20;;;20.30;99.90;;;;;;4965082;28;20618;-75
2023/08/10 06:16:43;;;;;;;4.37;1.40;;;20.30;99.90;;;;;;4971982;28;20230;-75
2023/08/10 06:19:09;;;;;;;4.60;1.33;;;20.30;99.90;;;;;;4973199;28;20204;-75
2023/08/10 06:21:35;;;;;;;3.60;1.30;;;20.50;99.90;;;;;;4957579;28;20655;-76
2023/08/10 06:24:01;;;;;;;4.70;1.50;;;21.00;99.90;;;;;;4964793;28;20190;-76
2023/08/10 06:26:26;;;;;;;4.17;1.10;;;21.70;99.90;;;;;;4970777;28;20267;-75
2023/08/10 06:28:52;;;;;;;2.37;0.90;;;22.50;99.90;;;;;;4966129;28;20631;-76
2023/08/10 06:31:18;;;;;;;2.90;1.40;;;23.50;99.90;;;;;;4971974;28;20188;-76
2023/08/10 06:33:44;;;;;;;2.40;1.10;;;24.50;99.90;;;;;;4971455;28;20194;-75
2023/08/10 06:36:11;;;;;;;3.50;1.23;;;25.50;99.90;;;;;;4971529;28;20646;-75
2023/08/10 06:38:37;;;;;;;5.53;1.00;;;26.60;99.90;;;;;;4972554;28;20207;-75
2023/08/10 06:41:03;;;;;;;2.30;1.07;;;27.60;99.90;;;;;;4970122;28;21076;-75
2023/08/10 06:43:29;;;;;;;3.70;1.10;;;28.60;99.90;;;;;;4987309;28;20198;-75
2023/08/10 06:45:55;;;;;;;1.80;1.00;;;29.50;99.90;;;;;;4979742;28;20207;-75
2023/08/10 06:48:20;;;;;;;1.60;0.90;;;30.40;99.90;;;;;;4971761;28;20640;-75
2023/08/10 06:50:47;;;;;;;2.90;1.10;;;31.20;99.90;;;;;;4976901;28;20199;-75
2023/08/10 06:53:13;;;;;;;1.87;0.90;;;32.00;99.90;;;;;;4981155;28;20190;-75
2023/08/10 06:55:38;;;;;;;5.60;1.20;;;32.60;99.90;;;;;;4955070;28;20661;-75
2023/08/10 06:58:05;;;;;;;2.93;0.90;;;33.20;99.90;;;;;;4955647;28;20604;-75
2023/08/10 07:00:31;;;;;;;2.90;1.10;;;33.80;99.40;;;;;;4952961;28;20204;-74
2023/08/10 07:02:58;;;;;;;4.73;0.87;;;34.30;97.10;;;;;;4976332;28;20959;-74
2023/08/10 07:05:26;;;;;;;3.20;0.90;;;34.80;95.50;;;;;;4953186;28;20595;-74
2023/08/10 07:07:52;;;;;;;2.80;0.80;;;35.30;93.70;;;;;;4954386;28;20622;-74
2023/08/10 07:10:18;;;;;;;2.33;0.80;;;35.80;92.10;;;;;;4987009;28;20646;-75
2023/08/10 07:12:45;;;;;;;2.20;0.80;;;36.20;90.80;;;;;;4970585;28;20591;-76
2023/08/10 07:15:11;;;;;;;2.00;0.70;;;36.60;88.90;;;;;;4970793;28;20647;-76
2023/08/10 07:17:37;;;;;;;2.60;0.80;;;37.10;85.00;;;;;;4971968;28;20653;-76
2023/08/10 07:20:05;;;;;;;1.73;0.70;;;37.40;81.60;;;;;;4952459;28;20646;-76
2023/08/10 07:22:31;;;;;;;2.63;0.73;;;37.70;78.40;;;;;;4968563;28;20191;-74
2023/08/10 07:25:05;;;;;;;1.90;0.73;;;38.00;76.00;;;;;;4972171;28;20630;-73
2023/08/10 07:27:34;;;;;;;2.33;0.80;;;38.30;73.00;;;;;;4967444;28;20624;-74
2023/08/10 07:30:03;;;;;;;2.77;0.80;;;38.70;70.60;;;;;;4951266;28;20627;-74
2023/08/10 07:32:29;;;;;;;1.70;0.63;;;38.90;68.40;;;;;;4965388;28;20690;-74
2023/08/10 07:34:55;;;;;;;2.20;0.70;;;39.10;66.40;;;;;;4972147;28;21021;-75
2023/08/10 07:37:21;;;;;;;4.50;1.10;;;39.40;64.30;;;;;;4972317;28;20583;-75
2023/08/10 07:39:47;;;;;;;2.57;0.80;;;39.60;63.20;;;;;;4968186;28;20694;-75
2023/08/10 07:42:13;;;;;;;1.90;0.60;;;39.70;60.50;;;;;;4958557;28;20195;-75
2023/08/10 07:44:39;;;;;;;2.27;0.70;;;39.80;58.90;;;;;;4987266;28;21164;-75
2023/08/10 07:47:05;;;;;;;2.07;0.70;;;40.00;57.80;;;;;;4982934;28;20237;-75
2023/08/10 07:49:31;;;;;;;2.20;0.60;;;40.10;56.40;;;;;;4958966;28;20198;-74
2023/08/10 07:51:58;;;;;;;1.60;0.70;;;40.20;55.40;;;;;;4968547;28;20626;-75
2023/08/10 07:54:25;;;;;;;1.93;0.67;;;40.30;54.50;;;;;;4978549;28;20601;-75
2023/08/10 07:56:51;;;;;;;2.13;0.70;;;40.40;53.40;;;;;;4971270;28;20641;-75
2023/08/10 07:59:17;;;;;;;3.30;0.70;;;40.30;52.70;;;;;;4992598;28;20619;-75
2023/08/10 08:01:43;;;;;;;2.57;0.80;;;40.30;51.80;;;;;;4978199;28;20582;-75
2023/08/10 08:04:09;;;;;;;3.60;0.80;;;40.40;51.10;;;;;;4976480;28;20179;-75
2023/08/10 08:06:36;;;;;;;2.03;0.77;;;40.60;50.80;;;;;;4969992;28;20603;-75
2023/08/10 08:09:04;;;;;;;1.60;0.70;;;40.70;49.80;;;;;;4964843;28;20195;-75
2023/08/10 08:11:30;;;;;;;1.80;0.70;;;40.90;49.20;;;;;;4989481;28;20599;-75
2023/08/10 08:13:56;;;;;;;2.17;0.67;;;41.00;48.20;;;;;;4977816;28;20944;-75
2023/08/10 08:16:22;;;;;;;1.60;0.60;;;41.10;47.30;;;;;;4978455;28;20749;-75
2023/08/10 08:18:50;;;;;;;2.33;0.90;;;41.20;46.90;;;;;;4991214;28;20195;-74
2023/08/10 08:21:18;;;;;;;2.70;0.70;;;41.30;46.20;;;;;;4976935;28;20171;-74
2023/08/10 08:23:45;;;;;;;1.60;0.50;;;41.30;45.90;;;;;;4976376;28;20594;-75
2023/08/10 08:26:14;;;;;;;1.40;0.60;;;41.40;45.20;;;;;;4993099;28;20595;-75
2023/08/10 08:28:40;;;;;;;2.00;0.70;;;41.40;44.30;;;;;;4972435;28;20710;-75
2023/08/10 08:31:06;;;;;;;1.93;0.50;;;41.40;43.80;;;;;;4977411;28;20586;-74
2023/08/10 08:33:33;;;;;;;1.50;0.70;;;41.30;43.60;;;;;;4961802;28;20611;-75
2023/08/10 08:36:00;;;;;;;2.23;0.70;;;41.30;43.10;;;;;;4958549;28;20639;-75
2023/08/10 08:38:27;;;;;;;1.63;0.60;;;41.30;42.80;;;;;;4973861;28;21113;-76
2023/08/10 08:40:57;;;;;;;1.80;0.60;;;41.10;42.10;;;;;;4976056;28;20618;-76
2023/08/10 08:43:23;;;;;;;1.50;0.60;;;41.10;41.90;;;;;;4977712;28;20597;-75
2023/08/10 08:45:49;;;;;;;2.23;0.60;;;41.00;41.90;;;;;;4977022;28;20960;-75
2023/08/10 08:48:17;;;;;;;2.43;0.70;;;41.00;41.70;;;;;;4972358;28;20216;-76
2023/08/10 08:50:45;;;;;;;3.23;0.70;;;41.00;41.10;;;;;;4954164;28;20636;-75
2023/08/10 08:53:12;;;;;;;1.97;0.60;;;40.90;41.10;;;;;;4954008;28;20610;-75
2023/08/10 08:55:41;;;;;;;1.70;0.60;;;40.90;40.70;;;;;;4985871;28;21014;-75
2023/08/10 08:58:08;;;;;;;1.70;0.57;;;40.90;39.80;;;;;;4966108;28;20595;-76
2023/08/10 09:00:34;;;;;;;1.70;0.70;;;40.90;40.20;;;;;;4974140;28;20692;-75
2023/08/10 09:03:01;;;;;;;1.70;0.60;;;40.90;40.10;;;;;;4966166;28;20586;-75
2023/08/10 09:05:29;;;;;;;1.50;0.60;;;40.90;39.80;;;;;;4973254;28;20602;-75
2023/08/10 09:07:55;;;;;;;1.40;0.50;;;40.90;39.50;;;;;;4970584;28;20595;-75
2023/08/10 09:10:21;;;;;;;1.80;0.60;;;40.90;39.20;;;;;;4980391;28;20683;-75
2023/08/10 09:12:48;;;;;;;1.60;0.50;;;40.90;39.00;;;;;;4985756;28;20647;-75
2023/08/10 09:15:17;;;;;;;1.60;0.90;;;41.00;39.10;;;;;;4953674;28;20204;-75
2023/08/10 09:17:48;;;;;;;1.40;0.50;;;41.10;39.10;;;;;;4954762;28;20642;-76
2023/08/10 09:20:18;;;;;;;2.37;0.60;;;41.30;38.60;;;;;;4953222;28;20698;-76
2023/08/10 09:22:44;;;;;;;4.17;0.60;;;41.30;37.90;;;;;;4952492;28;20596;-75
2023/08/10 09:25:10;;;;;;;2.53;0.60;;;41.30;37.40;;;;;;4949684;28;20702;-76
2023/08/10 09:27:35;;;;;;;2.23;0.60;;;41.30;37.20;;;;;;4972259;28;20690;-75
2023/08/10 09:30:04;;;;;;;1.93;0.63;;;41.40;37.30;;;;;;4971797;28;20203;-75
2023/08/10 09:32:31;;;;;;;1.47;0.60;;;41.40;36.90;;;;;;4972289;28;20275;-76
2023/08/10 09:34:57;;;;;;;1.57;0.50;;;41.40;36.60;;;;;;4972447;28;20606;-75
2023/08/10 09:37:24;;;;;;;2.13;0.60;;;41.50;36.70;;;;;;4971958;28;20599;-75
2023/08/10 09:39:59;;;;;;;1.60;0.60;;;41.50;37.00;;;;;;4982977;28;20224;-76
2023/08/10 09:42:29;;;;;;;4.33;0.90;;;41.70;36.70;;;;;;4952379;28;20605;-76
2023/08/10 09:44:54;;;;;;;1.77;0.60;;;41.80;36.90;;;;;;4971694;28;20598;-76
2023/08/10 09:47:21;;;;;;;1.30;0.50;;;41.90;36.80;;;;;;4956205;28;20621;-76
2023/08/10 09:49:56;;;;;;;2.53;0.50;;;42.00;35.80;;;;;;4969377;28;20714;-76
2023/08/10 09:52:25;;;;;;;1.73;0.70;;;42.00;34.90;;;;;;4973255;28;20187;-75
2023/08/10 09:54:52;;;;;;;2.03;0.50;;;41.90;34.90;;;;;;4952503;28;20695;-75
2023/08/10 09:57:19;;;;;;;2.00;0.50;;;41.70;34.30;;;;;;4962087;28;20650;-75
2023/08/10 09:59:46;;;;;;;1.40;0.70;;;41.50;34.70;;;;;;4964836;28;21079;-74
2023/08/10 10:02:13;;;;;;;2.80;0.67;;;41.50;34.70;;;;;;4970697;28;20703;-75
2023/08/10 10:04:39;;;;;;;1.60;0.70;;;41.50;35.20;;;;;;4972195;28;20609;-75
2023/08/10 10:07:09;;;;;;;2.73;0.60;;;41.50;35.30;;;;;;4960285;28;20592;-75
2023/08/10 10:09:37;;;;;;;1.93;0.70;;;41.50;34.90;;;;;;4954650;28;20219;-75
2023/08/10 10:12:06;;;;;;;1.50;0.70;;;41.50;35.40;;;;;;4954984;28;20590;-75
2023/08/10 10:14:33;;;;;;;2.70;0.70;;;41.60;35.00;;;;;;4966305;28;20654;-75
2023/08/10 10:16:59;;;;;;;4.30;0.90;;;41.50;34.50;;;;;;4952384;28;20654;-75
2023/08/10 10:19:27;;;;;;;1.50;0.90;;;41.40;34.30;;;;;;4966285;28;20658;-74
2023/08/10 10:21:52;;;;;;;2.70;1.00;;;41.30;34.40;;;;;;4971069;28;20682;-75
2023/08/10 10:24:18;;;;;;;1.70;0.80;;;41.20;33.80;;;;;;4972613;28;20705;-75
2023/08/10 10:27:08;;;;;;;1.60;0.80;;;41.10;34.20;;;;;;4972434;28;20172;-75
2023/08/10 10:29:51;;;;;;;2.43;1.20;;;41.10;33.60;;;;;;4963760;28;20631;-75
2023/08/10 10:32:19;;;;;;;3.00;1.40;;;40.90;34.30;;;;;;4952019;28;20592;-74
2023/08/10 10:34:46;;;;;;;2.17;1.47;;;40.90;34.10;;;;;;4953425;28;21025;-75
2023/08/10 10:37:14;;;;;;;2.57;1.10;;;40.80;34.50;;;;;;4953442;28;20596;-75
2023/08/10 10:39:44;;;;;;;3.03;1.10;;;40.90;34.50;;;;;;4981848;28;20735;-75
2023/08/10 10:42:11;;;;;;;2.37;1.27;;;40.90;34.30;;;;;;4957299;28;20631;-75
2023/08/10 10:45:03;;;;;;;3.43;1.60;;;40.90;34.90;;;;;;4972491;28;20656;-74
2023/08/10 10:47:40;;;;;;;4.30;2.50;;;41.00;33.90;;;;;;4953287;28;20619;-75
2023/08/10 10:50:22;;;;;;;3.70;2.57;;;40.80;33.90;;;;;;4954336;28;20677;-75
2023/08/10 10:53:00;;;;;;;4.00;2.30;;;40.60;34.10;;;;;;4971744;28;20591;-75
2023/08/10 10:55:42;;;;;;;6.43;2.53;;;40.20;34.30;;;;;;4957436;28;21238;-76
2023/08/10 10:58:10;;;;;;;3.70;2.20;;;39.90;34.20;;;;;;4953150;28;20588;-75
2023/08/10 11:00:36;;;;;;;2.57;1.60;;;39.60;34.80;;;;;;4967176;28;20689;-75
2023/08/10 11:03:06;;;;;;;3.13;1.90;;;39.30;34.80;;;;;;4971870;28;20932;-75
2023/08/10 11:05:33;;;;;;;5.00;2.20;;;39.10;35.00;;;;;;4957264;28;20926;-76
2023/08/10 11:08:08;;;;;;;2.70;1.43;;;38.90;35.10;;;;;;4953154;28;20584;-75
2023/08/10 11:10:37;;;;;;;3.33;1.70;;;38.70;34.80;;;;;;4971036;28;21212;-75
2023/08/10 11:13:08;;;;;;;2.90;1.27;;;38.40;35.10;;;;;;4984778;28;20586;-75
2023/08/10 11:15:36;;;;;;;3.80;1.77;;;38.30;35.70;;;;;;4962723;28;20643;-75
2023/08/10 11:18:09;;;;;;;2.90;1.70;;;38.20;36.00;;;;;;4961533;28;20606;-75
2023/08/10 11:20:40;;;;;;;2.40;1.43;;;38.10;35.90;;;;;;4960465;28;20620;-75
2023/08/10 11:23:06;;;;;;;2.50;1.60;;;38.00;36.00;;;;;;4961939;28;20657;-76
2023/08/10 11:25:32;;;;;;;2.77;1.40;;;37.90;36.10;;;;;;4966473;28;20657;-76
2023/08/10 11:27:58;;;;;;;2.73;1.40;;;37.80;36.40;;;;;;4965936;28;20592;-76
2023/08/10 11:30:26;;;;;;;3.17;1.70;;;37.60;36.00;;;;;;4971970;28;20243;-76
2023/08/10 11:32:53;;;;;;;2.73;1.10;;;37.50;36.00;;;;;;4953311;28;20278;-76
2023/08/10 11:35:22;;;;;;;4.10;1.30;;;37.30;36.10;;;;;;4975142;28;20634;-75
2023/08/10 11:37:49;;;;;;;2.90;1.50;;;37.20;36.30;;;;;;4968097;28;20594;-75
2023/08/10 11:40:21;;;;;;;2.70;1.30;;;37.10;36.70;;;;;;4959199;28;21038;-76
2023/08/10 11:43:02;;;;;;;3.33;1.30;;;37.00;36.60;;;;;;4970023;28;20591;-76
2023/08/10 11:45:29;;;;;;;2.10;1.07;;;36.80;35.90;;;;;;4959425;28;20603;-75
2023/08/10 11:47:59;;;;;;;2.37;1.30;;;36.60;36.20;;;;;;4953617;28;20619;-75
2023/08/10 11:50:26;;;;;;;3.00;1.37;;;36.50;36.10;;;;;;4971476;28;20639;-76
2023/08/10 11:52:53;;;;;;;2.10;1.10;;;36.30;36.70;;;;;;4978227;28;20928;-75
2023/08/10 11:55:20;;;;;;;1.97;1.03;;;36.20;37.10;;;;;;4958372;28;21113;-76
2023/08/10 11:57:48;;;;;;;4.67;1.43;;;36.20;37.20;;;;;;4957769;28;20587;-74
2023/08/10 12:00:22;;;;;;;3.30;1.40;;;36.10;37.10;;;;;;4959230;28;20611;-74
2023/08/10 12:03:01;;;;;;;2.30;1.20;;;35.90;37.40;;;;;;4954658;28;20591;-75
2023/08/10 12:05:35;;;;;;;2.33;1.17;;;35.90;37.50;;;;;;4965341;28;20682;-75
2023/08/10 12:08:09;;;;;;;2.80;1.50;;;35.90;37.50;;;;;;4956998;28;20587;-75
2023/08/10 12:10:48;;;;;;;2.20;1.40;;;35.70;37.40;;;;;;4970941;28;20603;-74
2023/08/10 12:13:16;;;;;;;3.40;1.60;;;35.60;37.60;;;;;;4969797;28;20594;-74
2023/08/10 12:15:50;;;;;;;4.10;1.13;;;35.40;37.50;;;;;;4975924;28;20686;-75
2023/08/10 12:18:18;;;;;;;2.07;1.03;;;35.20;37.50;;;;;;4985701;28;20691;-76
2023/08/10 12:20:45;;;;;;;2.40;1.30;;;35.10;37.80;;;;;;4971406;28;20623;-75
2023/08/10 12:23:11;;;;;;;1.80;1.10;;;34.90;37.70;;;;;;4969285;28;20607;-75
2023/08/10 12:25:37;;;;;;;2.30;1.10;;;34.70;37.70;;;;;;4961670;28;20596;-75
2023/08/10 12:28:05;;;;;;;4.60;1.37;;;34.60;38.00;;;;;;4967317;28;20594;-75
2023/08/10 12:30:31;;;;;;;4.70;1.40;;;34.50;38.30;;;;;;4974477;28;20777;-75
2023/08/10 12:32:56;;;;;;;2.57;1.00;;;34.30;38.30;;;;;;4964596;28;20682;-75
2023/08/10 12:35:22;;;;;;;2.30;1.30;;;34.10;38.40;;;;;;4973105;28;20233;-75
2023/08/10 12:37:49;;;;;;;4.10;2.43;;;33.90;38.50;;;;;;4966832;28;20334;-77
2023/08/10 12:40:18;;;;;;;2.40;1.30;;;33.70;38.40;;;;;;4955071;28;20211;-75
2023/08/10 12:42:44;;;;;;;2.60;1.10;;;33.50;38.40;;;;;;4961981;28;20595;-76
2023/08/10 12:45:11;;;;;;;3.53;1.77;;;33.20;39.10;;;;;;4958804;28;20653;-75
2023/08/10 12:47:38;;;;;;;2.00;0.97;;;32.80;38.80;;;;;;4983715;28;20578;-76
2023/08/10 12:50:05;;;;;;;2.20;0.97;;;32.70;39.00;;;;;;4973520;28;20707;-75